Terminal Aerodrome Forecast
Issued by NWS

Home | Current Version | Previous Version | Text Only | Print | Product List | Glossary On
Versions: 1 2 3 4 5 6 7 8 9 10 11 12 13 14 15 16 17 18 19 20 21 22 23 24 25 26 27 28 29 30 31 32 33
000
FTUS45 KBOU 250540
TAFAPA
TAF
KAPA 250540Z 2506/2606 32012KT P6SM FEW070 SCT100 BKN200
     FM250800 08008KT P6SM SCT100 SCT220
     FM251000 17008KT P6SM FEW220
     FM251700 25008KT P6SM FEW120 SCT220
     FM252100 33011G17KT P6SM FEW140 BKN200
     FM260100 20009KT P6SM SCT220=

USA.gov is the U.S. government's official web portal to all federal, state and local government web resources and services.